Time;durP1;ratioP1;P1;durP2;ratioP2;P2;SDS_P1;SDS_P2;PMS_P1;PMS_P2;Temp;Humidity;BMP_temperature;BMP_pressure;BME280_temperature;BME280_humidity;BME280_pressure;Samples;Min_cycle;Max_cycle;Signal;HPM_P1;HPM_P2
2022/03/15 00:00:50;;;;;;;94.65;55.63;;;;;;;22.47;48.44;103078.28;5071720;28;20052;-60
2022/03/15 00:03:15;;;;;;;97.15;54.17;;;;;;;22.42;48.62;103082.47;5071655;28;20119;-60
2022/03/15 00:05:41;;;;;;;91.80;54.20;;;;;;;22.37;47.99;103091.13;5073355;28;20024;-60
2022/03/15 00:08:07;;;;;;;96.80;55.22;;;;;;;22.39;47.82;103089.13;5075820;28;20372;-60
2022/03/15 00:10:32;;;;;;;88.22;51.42;;;;;;;22.33;47.97;103089.69;5075615;28;20035;-60
2022/03/15 00:12:58;;;;;;;96.25;52.95;;;;;;;22.39;48.08;103089.13;5075324;28;20075;-60
2022/03/15 00:15:24;;;;;;;95.03;54.70;;;;;;;22.38;48.45;103092.88;5075435;28;20036;-60
2022/03/15 00:17:50;;;;;;;87.38;52.10;;;;;;;22.28;48.66;103097.47;5075883;28;20387;-60
2022/03/15 00:20:21;;;;;;;91.65;53.95;;;;;;;22.61;47.73;103081.59;5075453;28;20456;-61
2022/03/15 00:22:47;;;;;;;88.72;50.15;;;;;;;22.96;49.79;103091.94;5075631;28;20024;-60
2022/03/15 00:25:16;;;;;;;93.55;53.83;;;;;;;23.04;51.54;103095.69;5073912;28;20020;-61
2022/03/15 00:27:43;;;;;;;89.97;53.47;;;;;;;23.15;52.14;103089.16;5075397;28;20021;-60
2022/03/15 00:30:09;;;;;;;89.88;50.08;;;;;;;23.23;53.45;103094.78;5075259;28;20391;-60
2022/03/15 00:32:35;;;;;;;87.10;50.08;;;;;;;23.32;54.44;103103.97;5074998;28;20503;-60
2022/03/15 00:35:00;;;;;;;83.05;49.58;;;;;;;23.36;55.26;103099.94;5075526;28;20438;-60
2022/03/15 00:37:26;;;;;;;88.85;50.05;;;;;;;23.37;55.98;103096.16;5074985;28;20051;-60
2022/03/15 00:39:51;;;;;;;84.45;49.25;;;;;;;23.43;56.97;103098.28;5075271;28;20068;-60
2022/03/15 00:42:17;;;;;;;85.63;49.88;;;;;;;23.47;57.30;103096.09;5074944;28;20028;-60
2022/03/15 00:44:42;;;;;;;81.03;47.30;;;;;;;23.51;56.53;103092.91;5074899;28;20034;-60
2022/03/15 00:47:08;;;;;;;79.18;47.38;;;;;;;23.53;57.71;103090.03;5074858;28;20471;-60
2022/03/15 00:49:34;;;;;;;82.57;47.00;;;;;;;23.54;57.29;103084.38;5074803;28;20028;-60
2022/03/15 00:52:00;;;;;;;84.40;50.13;;;;;;;23.56;58.13;103085.09;5075052;28;20460;-60
2022/03/15 00:54:26;;;;;;;84.10;49.05;;;;;;;23.60;58.41;103086.53;5074692;28;20028;-60
2022/03/15 00:56:51;;;;;;;82.00;46.95;;;;;;;23.58;57.95;103088.56;5074975;28;20109;-60
2022/03/15 00:59:18;;;;;;;83.53;47.85;;;;;;;23.61;57.81;103088.28;5074445;28;20040;-60
2022/03/15 01:01:44;;;;;;;81.07;48.60;;;;;;;23.67;58.30;103076.66;5075147;28;20158;-60
2022/03/15 01:04:09;;;;;;;82.55;47.50;;;;;;;23.68;58.38;103083.91;5074656;28;20432;-60
2022/03/15 01:06:38;;;;;;;82.47;48.08;;;;;;;23.71;59.19;103082.75;5074630;28;20256;-60
2022/03/15 01:09:04;;;;;;;82.50;46.95;;;;;;;23.72;58.81;103089.97;5074451;28;20020;-60
2022/03/15 01:11:30;;;;;;;79.88;45.65;;;;;;;23.73;58.13;103088.06;5074459;28;20035;-60
2022/03/15 01:13:55;;;;;;;80.47;48.75;;;;;;;23.75;58.41;103091.53;5074202;28;20016;-60
2022/03/15 01:16:21;;;;;;;80.43;47.85;;;;;;;23.78;58.05;103094.81;5073567;28;20399;-61
2022/03/15 01:18:46;;;;;;;77.30;46.55;;;;;;;23.79;58.13;103095.69;5073877;28;20033;-60
2022/03/15 01:21:13;;;;;;;79.18;45.72;;;;;;;23.82;57.99;103084.38;5074239;28;20021;-60
2022/03/15 01:23:39;;;;;;;76.68;45.50;;;;;;;23.79;56.89;103079.22;5074346;28;20025;-60
2022/03/15 01:26:04;;;;;;;76.38;46.00;;;;;;;23.83;57.15;103077.88;5073367;28;20024;-60
2022/03/15 01:28:29;;;;;;;83.43;47.72;;;;;;;23.83;57.25;103081.47;5074088;28;20099;-60
2022/03/15 01:30:55;;;;;;;76.03;45.85;;;;;;;23.90;57.07;103073.50;5074053;28;20026;-60
2022/03/15 01:33:21;;;;;;;75.88;44.60;;;;;;;23.86;56.74;103070.22;5073973;28;20059;-60
2022/03/15 01:35:46;;;;;;;77.28;45.92;;;;;;;23.88;56.51;103078.28;5074187;28;20028;-60
2022/03/15 01:38:11;;;;;;;78.18;46.47;;;;;;;23.91;56.95;103077.97;5074076;28;20059;-60
2022/03/15 01:40:37;;;;;;;72.40;44.17;;;;;;;23.91;56.98;103067.84;5074066;28;20146;-60
2022/03/15 01:43:03;;;;;;;77.68;45.38;;;;;;;23.97;56.23;103077.34;5073615;28;20024;-60
2022/03/15 01:45:37;;;;;;;79.10;45.72;;;;;;;23.95;56.75;103079.38;5073770;28;20073;-61
2022/03/15 01:48:04;;;;;;;79.75;46.38;;;;;;;23.97;57.30;103077.34;5073851;28;20479;-60
2022/03/15 01:50:30;;;;;;;79.75;46.17;;;;;;;23.98;57.21;103074.44;5073754;28;20032;-60
2022/03/15 01:52:56;;;;;;;79.97;46.20;;;;;;;23.98;57.50;103073.56;5073766;28;20021;-60
2022/03/15 01:55:21;;;;;;;80.95;47.63;;;;;;;23.99;57.12;103083.53;5073491;28;20384;-60
2022/03/15 01:57:47;;;;;;;76.05;45.75;;;;;;;24.01;57.42;103076.00;5073795;28;20025;-60
2022/03/15 02:00:14;;;;;;;81.68;48.40;;;;;;;24.03;57.23;103074.00;5073571;28;20048;-61
2022/03/15 02:02:39;;;;;;;76.18;46.42;;;;;;;24.02;56.92;103080.50;5073548;28;20031;-60
2022/03/15 02:05:05;;;;;;;75.30;45.35;;;;;;;24.03;57.26;103074.00;5073431;28;20376;-60
2022/03/15 02:07:30;;;;;;;80.35;48.20;;;;;;;24.04;57.27;103072.97;5073299;28;20060;-60
2022/03/15 02:09:56;;;;;;;77.15;45.38;;;;;;;24.05;56.92;103069.22;5073478;28;20031;-60
2022/03/15 02:12:22;;;;;;;71.07;43.75;;;;;;;24.05;56.62;103069.22;5073168;28;20490;-61
2022/03/15 02:14:47;;;;;;;74.60;46.47;;;;;;;24.03;56.67;103065.75;5072790;28;20028;-60
2022/03/15 02:17:12;;;;;;;78.15;46.72;;;;;;;24.03;56.82;103074.00;5072876;28;20447;-60
2022/03/15 02:19:38;;;;;;;76.43;46.63;;;;;;;24.01;56.14;103063.13;5073259;28;20035;-60
2022/03/15 02:22:04;;;;;;;71.88;45.45;;;;;;;24.01;55.52;103074.13;5073355;28;20027;-60
2022/03/15 02:24:29;;;;;;;72.20;43.60;;;;;;;24.06;55.45;103070.06;5072999;28;20531;-60
2022/03/15 02:26:55;;;;;;;79.50;44.85;;;;;;;24.07;55.03;103067.16;5073474;28;20021;-60
2022/03/15 02:29:21;;;;;;;79.82;47.80;;;;;;;24.06;54.95;103075.56;5072707;28;20058;-60
2022/03/15 02:31:48;;;;;;;73.68;43.97;;;;;;;24.05;54.47;103069.22;5073077;28;20044;-60
2022/03/15 02:34:13;;;;;;;72.45;45.63;;;;;;;24.06;53.96;103070.94;5073193;28;20032;-60
2022/03/15 02:36:40;;;;;;;76.07;45.78;;;;;;;24.05;54.39;103065.59;5072879;28;20052;-60
2022/03/15 02:39:05;;;;;;;74.28;46.67;;;;;;;24.06;53.85;103065.44;5072749;28;20023;-60
2022/03/15 02:41:30;;;;;;;76.30;45.80;;;;;;;24.04;53.42;103056.50;5072676;28;20059;-60
2022/03/15 02:43:56;;;;;;;83.47;46.47;;;;;;;24.04;54.09;103051.00;5072654;28;20024;-60
2022/03/15 02:46:27;;;;;;;76.55;46.15;;;;;;;24.07;53.50;103052.56;5072561;28;20021;-60
2022/03/15 02:48:52;;;;;;;76.10;45.03;;;;;;;24.06;53.95;103048.94;5072773;28;20024;-60
2022/03/15 02:51:17;;;;;;;79.07;47.17;;;;;;;24.04;53.26;103050.13;5072392;28;20490;-60
2022/03/15 02:53:42;;;;;;;79.95;48.13;;;;;;;24.04;53.32;103045.50;5072766;28;20029;-60
2022/03/15 02:56:11;;;;;;;79.05;46.42;;;;;;;24.04;53.90;103041.88;5072614;28;20490;-60
2022/03/15 02:58:38;;;;;;;74.25;45.58;;;;;;;24.07;53.65;103039.69;5072934;28;20437;-60
2022/03/15 03:01:03;;;;;;;78.75;45.58;;;;;;;24.09;53.19;103036.78;5072171;28;20103;-60
2022/03/15 03:03:29;;;;;;;76.72;45.72;;;;;;;24.06;53.10;103032.47;5072148;28;20146;-60
2022/03/15 03:05:54;;;;;;;71.35;44.17;;;;;;;24.08;53.07;103030.41;5072647;28;20380;-60
2022/03/15 03:08:20;;;;;;;76.78;46.15;;;;;;;24.08;53.49;103033.16;5072159;28;20086;-60
2022/03/15 03:10:46;;;;;;;79.55;47.05;;;;;;;24.09;53.96;103031.28;5072572;28;20020;-60
2022/03/15 03:13:11;;;;;;;77.40;46.70;;;;;;;;;;5072142;28;20020;-60
2022/03/15 03:15:36;;;;;;;82.07;48.05;;;;;;;24.13;53.35;103033.53;5072365;28;20028;-61
2022/03/15 03:18:02;;;;;;;78.60;46.40;;;;;;;24.17;53.30;103032.19;5072425;28;20103;-60
2022/03/15 03:20:29;;;;;;;80.50;46.53;;;;;;;24.11;53.42;103024.59;5072165;28;20490;-60
2022/03/15 03:22:55;;;;;;;78.55;46.80;;;;;;;24.11;52.47;103019.09;5072371;28;20032;-61
2022/03/15 03:25:21;;;;;;;74.40;46.08;;;;;;;24.10;53.51;103017.38;5071943;28;20036;-60
2022/03/15 03:27:49;;;;;;;76.30;47.28;;;;;;;24.12;53.49;103012.59;5072353;28;20024;-60
2022/03/15 03:30:15;;;;;;;78.45;46.65;;;;;;;24.13;53.59;103021.69;5072062;28;20020;-60
2022/03/15 03:32:41;;;;;;;75.88;47.13;;;;;;;24.13;53.29;103017.06;5071878;28;20067;-60
2022/03/15 03:35:07;;;;;;;79.18;46.38;;;;;;;24.14;53.40;103013.28;5071640;28;20039;-60
2022/03/15 03:37:32;;;;;;;80.72;47.22;;;;;;;24.09;52.89;103021.16;5072037;28;20100;-60
2022/03/15 03:39:58;;;;;;;75.47;45.42;;;;;;;24.14;53.00;103018.78;5072503;28;20451;-60
2022/03/15 03:42:24;;;;;;;76.57;45.67;;;;;;;24.15;53.86;103009.50;5076128;28;20032;-60
2022/03/15 03:44:49;;;;;;;79.40;46.70;;;;;;;24.16;52.97;103024.13;5076312;28;20479;-60
2022/03/15 03:47:14;;;;;;;76.90;46.50;;;;;;;24.16;53.75;103015.88;5075851;28;20066;-60
2022/03/15 03:49:40;;;;;;;77.18;46.78;;;;;;;24.14;53.75;103024.28;5076120;28;20024;-60
2022/03/15 03:52:07;;;;;;;79.78;47.15;;;;;;;24.17;54.07;103018.47;5076194;28;20082;-60
2022/03/15 03:54:33;;;;;;;78.60;46.08;;;;;;;24.15;53.81;103026.00;5076221;28;20455;-60
2022/03/15 03:56:58;;;;;;;77.75;45.58;;;;;;;24.17;54.14;103023.97;5074624;28;20461;-61
2022/03/15 03:59:23;;;;;;;81.13;48.20;;;;;;;24.14;53.75;103016.03;5075834;28;20100;-60
2022/03/15 04:01:49;;;;;;;84.28;50.17;;;;;;;24.15;54.34;103015.00;5076013;28;20482;-60
2022/03/15 04:04:14;;;;;;;79.10;46.30;;;;;;;24.21;54.54;103019.03;5075379;28;20028;-61
2022/03/15 04:06:40;;;;;;;78.07;47.40;;;;;;;24.21;54.28;103017.16;5075914;28;20036;-60
2022/03/15 04:09:06;;;;;;;78.72;47.88;;;;;;;24.13;54.44;103022.56;5075646;28;20021;-60
2022/03/15 04:11:32;;;;;;;78.43;47.97;;;;;;;24.13;53.96;102994.22;5075676;28;20068;-60
2022/03/15 04:13:59;;;;;;;81.35;48.10;;;;;;;;;;5075719;28;20471;-60
2022/03/15 04:16:25;;;;;;;77.47;46.13;;;;;;;24.15;54.10;102987.53;5075515;28;20020;-60
2022/03/15 04:18:51;;;;;;;74.65;45.03;;;;;;;24.18;54.47;102978.09;5075657;28;20089;-60
2022/03/15 04:21:18;;;;;;;77.50;46.92;;;;;;;24.20;53.97;102982.44;5075275;28;20547;-60
2022/03/15 04:23:45;;;;;;;78.72;47.58;;;;;;;24.22;54.71;102980.38;5075639;28;20020;-60
2022/03/15 04:26:10;;;;;;;78.82;46.47;;;;;;;24.18;54.95;102978.09;5075420;28;20028;-60
2022/03/15 04:28:35;;;;;;;81.28;47.95;;;;;;;24.22;54.75;102983.13;5075291;28;20036;-60
2022/03/15 04:31:01;;;;;;;80.93;46.38;;;;;;;24.21;55.30;102983.31;5075090;28;20025;-60
2022/03/15 04:33:26;;;;;;;75.82;44.80;;;;;;;24.22;54.95;102972.16;5075048;28;20029;-60
2022/03/15 04:35:51;;;;;;;79.43;47.08;;;;;;;24.22;54.91;102977.63;5075284;28;20020;-60
2022/03/15 04:38:17;;;;;;;74.55;44.80;;;;;;;24.20;55.67;102971.44;5075157;28;20032;-60
2022/03/15 04:40:42;;;;;;;73.05;44.97;;;;;;;24.22;55.16;102966.66;5073976;28;20464;-60
2022/03/15 04:43:08;;;;;;;78.75;46.42;;;;;;;24.23;54.64;102962.88;5074902;28;20028;-60
2022/03/15 04:45:33;;;;;;;77.45;45.78;;;;;;;24.24;55.31;102964.59;5075113;28;20017;-60
2022/03/15 04:47:59;;;;;;;74.88;46.45;;;;;;;24.20;55.65;102963.19;5075345;28;20021;-60
2022/03/15 04:50:24;;;;;;;80.65;46.50;;;;;;;24.21;55.11;102964.06;5074892;28;20494;-60
2022/03/15 04:52:49;;;;;;;78.93;46.05;;;;;;;24.23;55.20;102973.00;5073592;28;20021;-60
2022/03/15 04:55:15;;;;;;;79.68;44.25;;;;;;;24.22;54.77;102966.66;5074705;28;20459;-60
2022/03/15 04:57:40;;;;;;;73.75;43.70;;;;;;;24.15;55.37;102971.03;5075260;28;20044;-60
2022/03/15 05:00:09;;;;;;;71.95;43.42;;;;;;;24.12;55.57;102965.88;5074592;28;20082;-60
2022/03/15 05:02:40;;;;;;;73.57;43.63;;;;;;;24.26;54.89;102962.53;5074765;28;20055;-60
2022/03/15 05:05:06;;;;;;;76.85;44.70;;;;;;;24.32;53.86;102965.69;5074670;28;20027;-60
2022/03/15 05:07:31;;;;;;;80.50;45.08;;;;;;;24.32;53.93;102957.44;5074549;28;20063;-60
2022/03/15 05:12:42;;;;;;;72.80;45.50;;;;;;;24.31;51.57;102953.84;5074478;28;20070;-60
2022/03/15 05:15:08;;;;;;;74.05;44.10;;;;;;;24.39;51.31;102962.16;5074428;28;20032;-60
2022/03/15 05:17:34;;;;;;;77.93;46.08;;;;;;;24.36;51.19;102953.38;5074485;28;20017;-60
2022/03/15 05:19:59;;;;;;;75.78;45.97;;;;;;;24.40;51.22;102946.53;5074594;28;20026;-60
2022/03/15 05:22:25;;;;;;;72.72;43.47;;;;;;;24.37;50.06;102957.84;5074301;28;20104;-60
2022/03/15 05:24:50;;;;;;;74.25;46.38;;;;;;;24.45;49.91;102956.00;5074397;28;20066;-60
2022/03/15 05:27:16;;;;;;;74.32;45.33;;;;;;;24.37;50.00;102963.34;5074037;28;20024;-60
2022/03/15 05:29:41;;;;;;;81.30;46.40;;;;;;;24.39;49.78;102966.81;5074014;28;20021;-60
2022/03/15 05:32:07;;;;;;;76.50;44.53;;;;;;;24.44;49.67;102958.94;5074088;28;20243;-60
2022/03/15 05:34:32;;;;;;;81.63;45.28;;;;;;;24.41;49.61;102960.13;5074200;28;20036;-60
2022/03/15 05:36:58;;;;;;;75.05;45.60;;;;;;;24.40;48.43;102968.53;5073982;28;20035;-60
2022/03/15 05:39:23;;;;;;;76.90;45.70;;;;;;;24.43;48.54;102968.19;5073970;28;20479;-60
2022/03/15 05:41:49;;;;;;;72.55;44.10;;;;;;;24.45;49.31;102960.66;5074124;28;20055;-60
2022/03/15 05:44:14;;;;;;;80.13;44.95;;;;;;;24.45;48.63;102950.50;5073938;28;20108;-60
2022/03/15 05:46:39;;;;;;;80.38;48.17;;;;;;;24.40;49.02;102952.03;5073908;28;20032;-60
2022/03/15 05:49:05;;;;;;;75.72;44.42;;;;;;;24.49;48.82;102945.53;5073720;28;20020;-61
2022/03/15 05:51:30;;;;;;;74.95;45.25;;;;;;;24.54;49.32;102949.56;5073736;28;20372;-60
2022/03/15 05:53:55;;;;;;;77.00;45.08;;;;;;;24.54;48.67;102948.69;5073859;28;20028;-60
2022/03/15 05:56:20;;;;;;;79.10;45.38;;;;;;;24.52;49.26;102936.97;5073582;28;20030;-61
2022/03/15 05:58:46;;;;;;;74.32;43.38;;;;;;;24.59;48.60;102933.41;5073857;28;20025;-61
2022/03/15 06:01:12;;;;;;;75.60;45.90;;;;;;;24.65;49.36;102934.66;5073138;28;20032;-60
2022/03/15 06:03:37;;;;;;;72.45;44.13;;;;;;;24.58;50.09;102933.59;5073038;28;20021;-61
2022/03/15 06:06:03;;;;;;;77.35;45.83;;;;;;;24.59;49.18;102927.91;5073675;28;20089;-60
2022/03/15 06:08:28;;;;;;;75.55;45.40;;;;;;;24.59;48.56;102929.81;5073591;28;20111;-60
2022/03/15 06:10:54;;;;;;;74.35;44.70;;;;;;;24.57;48.84;102927.22;5073585;28;20029;-60
2022/03/15 06:13:19;;;;;;;84.32;46.80;;;;;;;24.51;48.70;102927.00;5073053;28;20020;-60
2022/03/15 06:15:44;;;;;;;79.38;46.45;;;;;;;24.56;49.49;102920.00;5073568;28;20031;-60
2022/03/15 06:18:09;;;;;;;83.25;48.65;;;;;;;24.53;49.25;102924.97;5073248;28;20417;-61
2022/03/15 06:20:35;;;;;;;80.13;46.58;;;;;;;24.55;48.29;102923.78;5073235;28;20028;-60
2022/03/15 06:23:01;;;;;;;78.15;47.50;;;;;;;24.58;49.48;102914.34;5073172;28;20020;-60
2022/03/15 06:25:27;;;;;;;81.72;46.83;;;;;;;24.59;48.91;102918.81;5073354;28;20052;-61
2022/03/15 06:27:52;;;;;;;75.60;46.50;;;;;;;24.61;49.22;102922.25;5073245;28;20055;-60
2022/03/15 06:30:19;;;;;;;77.70;44.75;;;;;;;24.62;49.27;102921.22;5072593;28;20029;-61
2022/03/15 06:32:44;;;;;;;80.68;47.17;;;;;;;24.58;49.46;102909.69;5073594;28;20045;-60
2022/03/15 06:35:12;;;;;;;76.18;47.70;;;;;;;24.63;49.78;102920.19;5072799;28;20031;-60
2022/03/15 06:37:45;;;;;;;80.03;46.10;;;;;;;24.61;49.13;102916.75;5072995;28;20070;-60
2022/03/15 06:40:11;;;;;;;75.10;44.83;;;;;;;24.69;49.68;102911.31;5073160;28;20023;-60
2022/03/15 06:42:38;;;;;;;80.95;49.85;;;;;;;24.65;49.95;102918.16;5071979;28;20447;-61
2022/03/15 06:45:04;;;;;;;72.43;44.92;;;;;;;24.63;49.81;102917.44;5066566;28;20417;-60
2022/03/15 06:47:30;;;;;;;83.90;47.25;;;;;;;24.63;50.88;102920.19;5070964;28;20124;-60
2022/03/15 06:49:55;;;;;;;81.28;45.92;;;;;;;24.52;50.52;102928.72;5072638;28;20104;-60
2022/03/15 06:52:20;;;;;;;95.15;50.60;;;;;;;24.47;51.85;102920.97;5067831;28;20032;-61
2022/03/15 06:54:46;;;;;;;85.88;47.20;;;;;;;24.47;51.61;102914.59;5069857;28;20021;-60
2022/03/15 06:57:11;;;;;;;86.00;47.45;;;;;;;24.49;52.29;102912.56;5072174;28;20028;-60
2022/03/15 06:59:36;;;;;;;88.15;51.63;;;;;;;24.47;53.22;102915.47;5070454;28;20415;-60
2022/03/15 07:02:01;;;;;;;104.15;54.97;;;;;;;24.49;53.10;102912.56;5072412;28;20036;-60
2022/03/15 07:04:27;;;;;;;90.22;49.67;;;;;;;24.51;53.30;102910.50;5071280;28;20028;-60
2022/03/15 07:06:52;;;;;;;89.45;49.90;;;;;;;24.55;53.51;102909.16;5072426;28;20103;-60
2022/03/15 07:09:17;;;;;;;102.13;53.90;;;;;;;24.58;54.85;102901.44;5071958;28;20029;-60
2022/03/15 07:11:43;;;;;;;145.30;78.20;;;;;;;24.60;56.24;102904.03;5070561;28;20032;-60
2022/03/15 07:14:08;;;;;;;175.80;89.80;;;;;;;24.48;56.91;102899.84;5071766;28;20419;-60
2022/03/15 07:16:34;;;;;;;189.38;96.57;;;;;;;24.47;57.54;102898.09;5071561;28;20024;-60
2022/03/15 07:18:59;;;;;;;178.25;90.95;;;;;;;24.49;57.73;102907.91;5072101;28;20021;-61
2022/03/15 07:21:25;;;;;;;192.93;99.45;;;;;;;24.43;57.09;102907.72;5069865;28;20028;-61
2022/03/15 07:23:50;;;;;;;186.32;96.15;;;;;;;24.43;56.61;102902.22;5071336;28;20107;-60
2022/03/15 07:26:16;;;;;;;182.65;95.07;;;;;;;24.49;56.65;102890.56;5070748;28;20457;-61
2022/03/15 07:28:41;;;;;;;192.30;97.95;;;;;;;24.43;57.04;102896.72;5072126;28;20036;-60
2022/03/15 07:31:06;;;;;;;187.13;97.15;;;;;;;24.46;55.89;102896.38;5069737;28;20037;-61
2022/03/15 07:33:32;;;;;;;193.77;100.68;;;;;;;24.42;56.09;102895.00;5069905;28;20479;-60
2022/03/15 07:36:01;;;;;;;192.52;102.65;;;;;;;24.44;56.04;102890.19;5066052;28;20024;-60
2022/03/15 07:38:27;;;;;;;202.27;104.07;;;;;;;24.38;55.74;102888.09;5051976;28;20028;-60
2022/03/15 07:40:53;;;;;;;212.10;104.25;;;;;;;24.44;55.84;102882.81;5052140;28;20463;-60
2022/03/15 07:43:23;;;;;;;198.63;101.18;;;;;;;24.45;55.59;102884.53;5051699;28;20033;-60
2022/03/15 07:45:49;;;;;;;192.35;101.13;;;;;;;24.39;55.57;102874.19;5052093;28;20021;-60
2022/03/15 07:48:15;;;;;;;184.00;96.68;;;;;;;24.37;55.49;102881.75;5064210;28;20032;-61
2022/03/15 07:50:41;;;;;;;202.40;104.07;;;;;;;24.39;54.96;102873.34;5070803;28;20021;-59
2022/03/15 07:53:06;;;;;;;189.00;99.15;;;;;;;24.38;55.50;102871.59;5072137;28;20017;-60
2022/03/15 07:55:32;;;;;;;212.35;104.78;;;;;;;24.44;55.80;102876.44;5071949;28;20088;-60
2022/03/15 07:57:57;;;;;;;204.15;106.45;;;;;;;24.43;55.33;102874.72;5072253;28;20067;-59
2022/03/15 08:00:22;;;;;;;196.77;100.28;;;;;;;24.47;55.31;102876.97;5071438;28;20032;-60
2022/03/15 08:02:48;;;;;;;191.02;98.05;;;;;;;24.41;55.56;102871.28;5071485;28;20451;-60
2022/03/15 08:05:13;;;;;;;183.68;97.93;;;;;;;24.44;55.12;102873.69;5071822;28;20033;-60
2022/03/15 08:07:39;;;;;;;202.63;100.72;;;;;;;24.43;54.95;102877.47;5071929;28;20025;-60
2022/03/15 08:10:08;;;;;;;202.35;104.88;;;;;;;24.44;55.48;102866.31;5071819;28;20063;-60
2022/03/15 08:12:34;;;;;;;188.98;98.25;;;;;;;24.46;55.28;102868.88;5072074;28;20374;-59
2022/03/15 08:14:59;;;;;;;192.77;104.60;;;;;;;24.43;55.33;102867.34;5071935;28;20036;-60
2022/03/15 08:17:25;;;;;;;197.48;103.35;;;;;;;24.48;55.04;102864.94;5071940;28;20021;-59
2022/03/15 08:19:51;;;;;;;215.35;108.72;;;;;;;24.53;54.93;102857.09;5071752;28;20046;-59
2022/03/15 08:22:16;;;;;;;206.27;104.38;;;;;;;24.43;55.96;102867.34;5071693;28;20032;-60
2022/03/15 08:24:42;;;;;;;202.40;103.28;;;;;;;24.48;55.54;102861.34;5071684;28;20059;-60
2022/03/15 08:27:08;;;;;;;195.38;105.18;;;;;;;24.50;55.18;102867.53;5073393;28;20028;-60
2022/03/15 08:29:34;;;;;;;211.20;106.38;;;;;;;24.46;55.91;102874.38;5075225;28;20028;-60
2022/03/15 08:31:59;;;;;;;210.57;108.90;;;;;;;24.50;55.58;102870.28;5075247;28;20530;-59
2022/03/15 08:34:24;;;;;;;199.25;101.65;;;;;;;24.51;56.41;102870.13;5075139;28;20024;-60
2022/03/15 08:36:50;;;;;;;201.82;104.25;;;;;;;24.69;55.50;102861.81;5075341;28;20027;-60
2022/03/15 08:39:15;;;;;;;198.57;101.07;;;;;;;24.57;56.30;102866.72;5075155;28;20068;-59
2022/03/15 08:41:42;;;;;;;193.80;99.13;;;;;;;24.56;56.25;102877.88;5075232;28;20025;-60
2022/03/15 08:44:07;;;;;;;196.80;100.47;;;;;;;24.56;56.24;102873.25;5075085;28;20483;-60
2022/03/15 08:46:33;;;;;;;191.40;97.43;;;;;;;24.54;55.79;102877.19;5075057;28;20107;-60
2022/03/15 08:48:58;;;;;;;191.80;99.75;;;;;;;24.52;56.52;102869.13;5075060;28;20080;-60
2022/03/15 08:51:23;;;;;;;193.20;98.13;;;;;;;24.57;56.21;102868.63;5074883;28;20404;-60
2022/03/15 08:53:48;;;;;;;197.93;99.40;;;;;;;24.54;57.22;102874.44;5074955;28;20024;-60
2022/03/15 08:56:14;;;;;;;197.05;101.43;;;;;;;24.51;56.50;102872.00;5074679;28;20035;-60
2022/03/15 08:58:39;;;;;;;191.35;98.00;;;;;;;24.59;56.57;102877.56;5075176;28;20082;-60
2022/03/15 09:01:04;;;;;;;196.55;102.32;;;;;;;24.54;56.98;102877.19;5074847;28;20016;-60
2022/03/15 09:03:30;;;;;;;207.25;103.68;;;;;;;24.55;57.00;102873.41;5074751;28;20357;-60
2022/03/15 09:05:55;;;;;;;193.98;97.15;;;;;;;24.59;56.85;102861.06;5074656;28;20549;-60
2022/03/15 09:08:20;;;;;;;212.35;105.13;;;;;;;24.57;56.55;102860.38;5074406;28;20024;-59
2022/03/15 09:10:47;;;;;;;203.40;102.25;;;;;;;24.58;56.93;102862.94;5074798;28;20020;-60
2022/03/15 09:13:13;;;;;;;214.02;109.55;;;;;;;24.61;56.12;102850.75;5074524;28;20038;-61
2022/03/15 09:15:38;;;;;;;194.25;101.80;;;;;;;24.56;57.21;102858.66;5074682;28;20361;-60
2022/03/15 09:18:03;;;;;;;210.88;106.50;;;;;;;24.53;56.92;102858.97;5073348;28;20473;-60
2022/03/15 09:20:29;;;;;;;210.52;109.32;;;;;;;24.57;57.08;102857.63;5073159;28;20039;-60
2022/03/15 09:22:54;;;;;;;193.07;100.63;;;;;;;24.55;56.82;102856.91;5074515;28;20480;-60
2022/03/15 09:25:20;;;;;;;205.02;102.45;;;;;;;24.58;56.26;102851.94;5073980;28;20052;-59
2022/03/15 09:27:47;;;;;;;193.15;100.40;;;;;;;24.54;56.73;102852.44;5074127;28;20044;-60
2022/03/15 09:30:13;;;;;;;181.38;91.50;;;;;;;24.56;57.23;102853.16;5072631;28;20024;-60
2022/03/15 09:32:38;;;;;;;203.25;101.13;;;;;;;24.60;56.22;102849.03;5074136;28;20049;-60
2022/03/15 09:35:04;;;;;;;189.75;100.05;;;;;;;24.54;56.68;102849.69;5074299;28;20112;-60
2022/03/15 09:37:30;;;;;;;190.65;98.60;;;;;;;24.58;56.85;102843.69;5073382;28;20024;-60
2022/03/15 09:39:57;;;;;;;200.27;102.97;;;;;;;24.55;56.66;102841.28;5073802;28;20090;-60
2022/03/15 09:42:24;;;;;;;199.25;104.68;;;;;;;24.53;56.17;102836.97;5073844;28;20069;-60
2022/03/15 09:44:50;;;;;;;173.95;94.57;;;;;;;24.58;56.33;102835.44;5072650;28;20490;-60
2022/03/15 09:47:17;;;;;;;189.43;99.70;;;;;;;24.57;56.96;102838.38;5073668;28;20024;-61
2022/03/15 09:49:44;;;;;;;191.85;100.57;;;;;;;24.58;56.25;102851.09;5073982;28;20021;-60
2022/03/15 09:52:11;;;;;;;196.45;100.75;;;;;;;24.54;57.17;102852.44;5073438;28;20111;-60
2022/03/15 09:54:38;;;;;;;177.10;92.97;;;;;;;24.52;57.48;102846.22;5073577;28;20224;-60
2022/03/15 09:57:05;;;;;;;186.02;93.65;;;;;;;24.54;56.37;102852.44;5073949;28;20032;-60
2022/03/15 09:59:31;;;;;;;175.10;92.55;;;;;;;24.52;56.80;102857.22;5073808;28;20021;-60
2022/03/15 10:01:59;;;;;;;173.88;90.95;;;;;;;24.46;56.08;102855.16;5072426;28;20401;-60
2022/03/15 10:04:25;;;;;;;185.70;94.97;;;;;;;24.49;55.96;102852.06;5072208;28;20034;-60
2022/03/15 10:06:52;;;;;;;186.93;97.57;;;;;;;24.50;56.12;102845.53;5073261;28;20029;-60
2022/03/15 10:09:17;;;;;;;197.43;100.68;;;;;;;24.50;55.08;102842.78;5072056;28;20058;-60
2022/03/15 10:11:42;;;;;;;188.23;93.22;;;;;;;24.48;54.81;102847.59;5073490;28;20028;-60
2022/03/15 10:14:08;;;;;;;178.00;91.82;;;;;;;24.48;54.98;102844.84;5073401;28;20505;-60
2022/03/15 10:16:40;;;;;;;198.43;104.30;;;;;;;24.46;55.15;102844.13;5073320;28;20070;-60
2022/03/15 10:19:06;;;;;;;176.68;91.47;;;;;;;24.53;54.80;102834.22;5073271;28;20447;-61
2022/03/15 10:21:44;;;;;;;167.38;91.00;;;;;;;24.44;55.56;102832.44;5072956;28;20029;-60
2022/03/15 10:24:09;;;;;;;180.27;90.32;;;;;;;24.44;55.12;102832.44;5073224;28;20107;-60
2022/03/15 10:26:39;;;;;;;180.18;90.22;;;;;;;24.43;54.55;102830.72;5073095;28;20123;-60
2022/03/15 10:29:05;;;;;;;191.07;98.22;;;;;;;24.49;54.44;102824.56;5073078;28;20021;-60
2022/03/15 10:31:31;;;;;;;180.77;94.50;;;;;;;24.42;54.58;102831.75;5072887;28;20110;-60
2022/03/15 10:34:01;;;;;;;176.82;91.88;;;;;;;24.51;53.97;102823.38;5073231;28;20115;-60
2022/03/15 10:36:36;;;;;;;179.07;94.00;;;;;;;24.48;54.74;102825.59;5073197;28;20059;-59
2022/03/15 10:39:02;;;;;;;186.38;96.80;;;;;;;24.39;54.42;102818.34;5073033;28;20444;-59
2022/03/15 10:41:27;;;;;;;180.25;94.70;;;;;;;24.44;55.15;102810.47;5073010;28;20099;-61
2022/03/15 10:43:53;;;;;;;201.07;98.78;;;;;;;24.40;54.78;102809.06;5072871;28;20085;-60
2022/03/15 10:46:22;;;;;;;184.65;95.53;;;;;;;24.46;54.40;102813.91;5072649;28;20028;-60
2022/03/15 10:49:01;;;;;;;202.60;97.68;;;;;;;24.51;54.86;102811.50;5072594;28;20111;-60
2022/03/15 10:51:26;;;;;;;194.13;100.07;;;;;;;24.52;54.72;102807.72;5072557;28;20038;-59
2022/03/15 10:54:00;;;;;;;196.15;98.63;;;;;;;24.53;54.33;102801.22;5072845;28;20032;-60
2022/03/15 10:56:26;;;;;;;204.18;98.93;;;;;;;24.53;55.44;102798.47;5072845;28;20027;-60
2022/03/15 10:58:53;;;;;;;189.10;95.15;;;;;;;24.54;54.96;102797.44;5072673;28;20410;-60
2022/03/15 11:01:23;;;;;;;196.93;97.15;;;;;;;24.52;54.94;102796.72;5071019;28;20028;-60
2022/03/15 11:04:00;;;;;;;182.07;94.50;;;;;;;24.59;55.12;102787.66;5072785;28;20031;-60